sensor_id;sensor_type;location;lat;lon;timestamp;pressure;altitude;pressure_sealevel;temperature;humidity
19783;BME280;10051;40.294;-3.754;2023-02-19T00:01:29;95152.19;;;12.12;47.86
19783;BME280;10051;40.294;-3.754;2023-02-19T00:04:08;95154.81;;;12.17;48.84
19783;BME280;10051;40.294;-3.754;2023-02-19T00:06:35;95083.06;;;11.74;49.61
19783;BME280;10051;40.294;-3.754;2023-02-19T00:09:01;95157.97;;;12.14;49.42
19783;BME280;10051;40.294;-3.754;2023-02-19T00:11:30;95139.53;;;12.04;49.39
19783;BME280;10051;40.294;-3.754;2023-02-19T00:13:59;95026.91;;;11.16;49.85
19783;BME280;10051;40.294;-3.754;2023-02-19T00:16:36;94990.59;;;11.03;49.60
19783;BME280;10051;40.294;-3.754;2023-02-19T00:19:04;95156.94;;;12.10;49.66
19783;BME280;10051;40.294;-3.754;2023-02-19T00:21:31;95161.69;;;12.08;49.47
19783;BME280;10051;40.294;-3.754;2023-02-19T00:23:59;94959.69;;;10.62;49.71
19783;BME280;10051;40.294;-3.754;2023-02-19T00:26:31;95129.97;;;11.72;49.79
19783;BME280;10051;40.294;-3.754;2023-02-19T00:29:00;94933.28;;;10.36;50.37
19783;BME280;10051;40.294;-3.754;2023-02-19T00:31:28;94947.00;;;10.44;50.23
19783;BME280;10051;40.294;-3.754;2023-02-19T00:33:56;95061.16;;;11.32;49.80
19783;BME280;10051;40.294;-3.754;2023-02-19T00:36:22;95112.59;;;11.66;48.99
19783;BME280;10051;40.294;-3.754;2023-02-19T00:38:48;94971.28;;;10.71;49.13
19783;BME280;10051;40.294;-3.754;2023-02-19T00:41:18;94969.72;;;10.70;48.75
19783;BME280;10051;40.294;-3.754;2023-02-19T00:43:51;95149.50;;;11.97;48.57
19783;BME280;10051;40.294;-3.754;2023-02-19T00:46:23;95056.97;;;11.36;48.29
19783;BME280;10051;40.294;-3.754;2023-02-19T00:48:49;95030.34;;;11.22;48.13
19783;BME280;10051;40.294;-3.754;2023-02-19T00:51:17;95154.00;;;12.01;47.66
19783;BME280;10051;40.294;-3.754;2023-02-19T00:53:44;95147.97;;;12.01;47.80
19783;BME280;10051;40.294;-3.754;2023-02-19T00:56:10;95156.91;;;12.00;47.67
19783;BME280;10051;40.294;-3.754;2023-02-19T00:58:36;95044.34;;;11.38;48.14
19783;BME280;10051;40.294;-3.754;2023-02-19T01:01:02;95147.97;;;12.01;48.02
19783;BME280;10051;40.294;-3.754;2023-02-19T01:03:28;95066.75;;;11.56;48.09
19783;BME280;10051;40.294;-3.754;2023-02-19T01:05:54;95053.56;;;11.51;47.65
19783;BME280;10051;40.294;-3.754;2023-02-19T01:08:20;95043.53;;;11.48;47.70
19783;BME280;10051;40.294;-3.754;2023-02-19T01:10:46;95126.06;;;12.00;47.94
19783;BME280;10051;40.294;-3.754;2023-02-19T01:13:12;95068.03;;;11.59;47.62
19783;BME280;10051;40.294;-3.754;2023-02-19T01:15:38;95125.28;;;12.00;47.86
19783;BME280;10051;40.294;-3.754;2023-02-19T01:18:04;95039.31;;;11.42;47.70
19783;BME280;10051;40.294;-3.754;2023-02-19T01:20:29;95027.72;;;11.33;47.64
19783;BME280;10051;40.294;-3.754;2023-02-19T01:22:55;94958.16;;;10.87;47.96
19783;BME280;10051;40.294;-3.754;2023-02-19T01:25:23;95127.88;;;11.89;48.03
19783;BME280;10051;40.294;-3.754;2023-02-19T01:27:49;95096.78;;;11.66;48.60
19783;BME280;10051;40.294;-3.754;2023-02-19T01:30:15;95036.16;;;11.24;48.44
19783;BME280;10051;40.294;-3.754;2023-02-19T01:32:40;95029.28;;;11.28;48.38
19783;BME280;10051;40.294;-3.754;2023-02-19T01:35:06;95088.34;;;11.69;48.55
19783;BME280;10051;40.294;-3.754;2023-02-19T01:37:32;95121.31;;;11.87;48.70
19783;BME280;10051;40.294;-3.754;2023-02-19T01:39:57;95001.38;;;11.07;48.16
19783;BME280;10051;40.294;-3.754;2023-02-19T01:42:23;95126.84;;;11.96;48.07
19783;BME280;10051;40.294;-3.754;2023-02-19T01:45:28;95117.34;;;11.84;48.99
19783;BME280;10051;40.294;-3.754;2023-02-19T01:48:00;95095.72;;;11.72;48.88
19783;BME280;10051;40.294;-3.754;2023-02-19T01:50:29;95068.31;;;11.52;48.62
19783;BME280;10051;40.294;-3.754;2023-02-19T01:52:56;95072.53;;;11.48;49.11
19783;BME280;10051;40.294;-3.754;2023-02-19T01:55:24;95115.75;;;11.73;49.10
19783;BME280;10051;40.294;-3.754;2023-02-19T01:57:52;95012.94;;;11.06;49.16
19783;BME280;10051;40.294;-3.754;2023-02-19T02:00:19;95114.69;;;11.64;49.70
19783;BME280;10051;40.294;-3.754;2023-02-19T02:02:48;95117.31;;;11.58;50.02
19783;BME280;10051;40.294;-3.754;2023-02-19T02:05:41;95109.13;;;11.55;50.32
19783;BME280;10051;40.294;-3.754;2023-02-19T02:08:09;95075.66;;;11.35;50.03
19783;BME280;10051;40.294;-3.754;2023-02-19T02:10:58;94922.78;;;10.36;50.05
19783;BME280;10051;40.294;-3.754;2023-02-19T02:13:24;94889.13;;;10.33;49.34
19783;BME280;10051;40.294;-3.754;2023-02-19T02:32:26;95097.31;;;11.68;49.97
19783;BME280;10051;40.294;-3.754;2023-02-19T02:35:01;95051.41;;;11.27;50.42
19783;BME280;10051;40.294;-3.754;2023-02-19T02:37:31;95071.47;;;11.49;50.17
19783;BME280;10051;40.294;-3.754;2023-02-19T02:40:01;95065.66;;;11.37;50.56
19783;BME280;10051;40.294;-3.754;2023-02-19T02:42:27;95073.31;;;11.38;50.54
19783;BME280;10051;40.294;-3.754;2023-02-19T02:45:22;95093.31;;;11.50;50.44
19783;BME280;10051;40.294;-3.754;2023-02-19T02:50:43;95089.38;;;11.47;50.82
19783;BME280;10051;40.294;-3.754;2023-02-19T02:53:19;95070.91;;;11.31;50.76
19783;BME280;10051;40.294;-3.754;2023-02-19T02:56:04;95070.38;;;11.24;51.05
19783;BME280;10051;40.294;-3.754;2023-02-19T02:58:31;95058.50;;;11.16;51.44
19783;BME280;10051;40.294;-3.754;2023-02-19T03:01:07;95004.38;;;10.57;52.22
19783;BME280;10051;40.294;-3.754;2023-02-19T03:03:59;95017.00;;;10.55;53.01
19783;BME280;10051;40.294;-3.754;2023-02-19T03:06:29;94887.72;;;9.57;53.74
19783;BME280;10051;40.294;-3.754;2023-02-19T03:09:11;95030.28;;;10.33;54.48
19783;BME280;10051;40.294;-3.754;2023-02-19T03:11:42;95066.38;;;10.48;55.30
19783;BME280;10051;40.294;-3.754;2023-02-19T03:14:37;95057.91;;;10.35;55.52
19783;BME280;10051;40.294;-3.754;2023-02-19T03:17:50;95058.41;;;10.32;55.74
19783;BME280;10051;40.294;-3.754;2023-02-19T03:20:39;95024.56;;;10.03;56.21
19783;BME280;10051;40.294;-3.754;2023-02-19T03:23:08;94996.88;;;9.85;56.44
19783;BME280;10051;40.294;-3.754;2023-02-19T03:25:35;95000.75;;;9.72;57.17
19783;BME280;10051;40.294;-3.754;2023-02-19T03:28:23;95006.50;;;9.69;57.09
19783;BME280;10051;40.294;-3.754;2023-02-19T03:31:13;95054.22;;;9.93;57.63
19783;BME280;10051;40.294;-3.754;2023-02-19T03:33:42;95035.47;;;9.79;57.87
19783;BME280;10051;40.294;-3.754;2023-02-19T03:36:11;95021.97;;;9.65;57.93
19783;BME280;10051;40.294;-3.754;2023-02-19T03:38:47;95041.47;;;9.75;58.68
19783;BME280;10051;40.294;-3.754;2023-02-19T03:41:29;94897.59;;;8.74;58.60
19783;BME280;10051;40.294;-3.754;2023-02-19T03:58:26;94984.25;;;9.12;59.65
19783;BME280;10051;40.294;-3.754;2023-02-19T04:01:43;95054.06;;;9.40;61.02
19783;BME280;10051;40.294;-3.754;2023-02-19T04:04:31;94950.25;;;8.67;61.14
19783;BME280;10051;40.294;-3.754;2023-02-19T04:06:57;94779.59;;;7.42;61.11
19783;BME280;10051;40.294;-3.754;2023-02-19T04:09:27;94906.75;;;8.22;60.98
19783;BME280;10051;40.294;-3.754;2023-02-19T04:32:31;94994.38;;;8.75;60.45
19783;BME280;10051;40.294;-3.754;2023-02-19T04:34:56;95017.81;;;9.10;59.35
19783;BME280;10051;40.294;-3.754;2023-02-19T04:37:22;94999.13;;;9.06;59.47
19783;BME280;10051;40.294;-3.754;2023-02-19T04:39:48;95012.06;;;9.40;58.24
19783;BME280;10051;40.294;-3.754;2023-02-19T04:42:14;95056.41;;;9.69;57.64
19783;BME280;10051;40.294;-3.754;2023-02-19T04:44:39;94814.69;;;8.13;57.92
19783;BME280;10051;40.294;-3.754;2023-02-19T04:47:05;95023.00;;;9.32;58.72
19783;BME280;10051;40.294;-3.754;2023-02-19T04:49:31;95032.41;;;9.28;58.96
19783;BME280;10051;40.294;-3.754;2023-02-19T04:52:12;95062.47;;;9.42;58.85
19783;BME280;10051;40.294;-3.754;2023-02-19T04:54:50;95065.28;;;9.35;59.12
19783;BME280;10051;40.294;-3.754;2023-02-19T04:57:21;95066.47;;;9.22;58.95
19783;BME280;10051;40.294;-3.754;2023-02-19T04:59:48;94972.75;;;8.63;58.92
19783;BME280;10051;40.294;-3.754;2023-02-19T05:02:15;94965.72;;;8.46;59.77
19783;BME280;10051;40.294;-3.754;2023-02-19T05:04:46;95062.16;;;9.11;59.49
19783;BME280;10051;40.294;-3.754;2023-02-19T05:07:14;95065.78;;;9.05;60.05
19783;BME280;10051;40.294;-3.754;2023-02-19T05:09:41;95058.28;;;8.91;60.27
19783;BME280;10051;40.294;-3.754;2023-02-19T05:12:08;95073.69;;;8.88;61.05
19783;BME280;10051;40.294;-3.754;2023-02-19T05:14:37;95063.47;;;8.86;61.21
19783;BME280;10051;40.294;-3.754;2023-02-19T05:17:06;94960.78;;;8.06;61.40
19783;BME280;10051;40.294;-3.754;2023-02-19T05:19:31;94957.00;;;7.96;61.64
19783;BME280;10051;40.294;-3.754;2023-02-19T05:21:57;94954.13;;;7.98;61.24
19783;BME280;10051;40.294;-3.754;2023-02-19T05:24:24;95034.63;;;8.64;60.85
19783;BME280;10051;40.294;-3.754;2023-02-19T05:26:54;94989.28;;;8.24;60.58
19783;BME280;10051;40.294;-3.754;2023-02-19T05:29:19;94970.59;;;8.38;60.57
19783;BME280;10051;40.294;-3.754;2023-02-19T05:31:45;95009.50;;;8.68;60.13
19783;BME280;10051;40.294;-3.754;2023-02-19T05:34:11;95007.25;;;8.77;59.88
19783;BME280;10051;40.294;-3.754;2023-02-19T05:36:38;95009.56;;;8.73;60.65
19783;BME280;10051;40.294;-3.754;2023-02-19T05:39:03;94934.75;;;8.21;60.51
19783;BME280;10051;40.294;-3.754;2023-02-19T05:41:30;95072.16;;;9.14;60.61
19783;BME280;10051;40.294;-3.754;2023-02-19T05:43:57;94898.94;;;8.04;60.28
19783;BME280;10051;40.294;-3.754;2023-02-19T05:46:26;95034.88;;;9.12;60.05
19783;BME280;10051;40.294;-3.754;2023-02-19T05:48:55;94935.63;;;8.49;60.04
19783;BME280;10051;40.294;-3.754;2023-02-19T05:51:25;94967.84;;;8.72;59.86
19783;BME280;10051;40.294;-3.754;2023-02-19T05:53:52;95063.47;;;9.36;59.25
19783;BME280;10051;40.294;-3.754;2023-02-19T05:56:33;95063.19;;;9.37;59.54
19783;BME280;10051;40.294;-3.754;2023-02-19T05:59:07;95056.22;;;9.48;58.75
19783;BME280;10051;40.294;-3.754;2023-02-19T06:40:26;94925.56;;;7.96;61.04
19783;BME280;10051;40.294;-3.754;2023-02-19T06:42:51;95078.22;;;9.15;60.32
19783;BME280;10051;40.294;-3.754;2023-02-19T06:45:17;95065.72;;;9.00;60.64
19783;BME280;10051;40.294;-3.754;2023-02-19T06:47:42;94874.50;;;7.77;60.82
19783;BME280;10051;40.294;-3.754;2023-02-19T06:50:08;94858.69;;;7.66;60.84
19783;BME280;10051;40.294;-3.754;2023-02-19T06:52:34;95087.47;;;9.22;60.18
19783;BME280;10051;40.294;-3.754;2023-02-19T06:54:59;95085.19;;;9.31;59.73
19783;BME280;10051;40.294;-3.754;2023-02-19T06:57:25;95098.69;;;9.40;59.75
19783;BME280;10051;40.294;-3.754;2023-02-19T06:59:50;94967.25;;;8.65;59.41
19783;BME280;10051;40.294;-3.754;2023-02-19T07:02:16;95015.34;;;8.98;59.31
19783;BME280;10051;40.294;-3.754;2023-02-19T07:04:42;94990.53;;;8.83;59.33
19783;BME280;10051;40.294;-3.754;2023-02-19T07:07:10;94866.78;;;7.87;59.99
19783;BME280;10051;40.294;-3.754;2023-02-19T07:09:36;94930.56;;;8.20;60.45
19783;BME280;10051;40.294;-3.754;2023-02-19T07:12:02;94902.53;;;7.98;61.10
19783;BME280;10051;40.294;-3.754;2023-02-19T07:14:27;94969.56;;;8.39;61.15
19783;BME280;10051;40.294;-3.754;2023-02-19T07:16:54;94935.91;;;8.30;60.98
19783;BME280;10051;40.294;-3.754;2023-02-19T07:19:19;94913.69;;;8.11;60.57
19783;BME280;10051;40.294;-3.754;2023-02-19T07:21:45;94918.00;;;8.22;61.20
19783;BME280;10051;40.294;-3.754;2023-02-19T07:24:11;94895.59;;;7.87;61.77
19783;BME280;10051;40.294;-3.754;2023-02-19T07:26:36;95058.28;;;8.91;62.49
19783;BME280;10051;40.294;-3.754;2023-02-19T07:29:02;94995.03;;;8.43;62.80
19783;BME280;10051;40.294;-3.754;2023-02-19T07:31:28;95020.69;;;8.58;62.58
19783;BME280;10051;40.294;-3.754;2023-02-19T07:33:54;95098.94;;;9.16;62.68
19783;BME280;10051;40.294;-3.754;2023-02-19T07:36:21;94948.78;;;8.32;61.79
19783;BME280;10051;40.294;-3.754;2023-02-19T07:38:53;95099.75;;;9.17;62.21
19783;BME280;10051;40.294;-3.754;2023-02-19T07:41:19;95043.59;;;8.90;62.20
19783;BME280;10051;40.294;-3.754;2023-02-19T07:43:45;95054.13;;;8.96;61.81
19783;BME280;10051;40.294;-3.754;2023-02-19T07:46:12;95086.06;;;9.37;61.64
19783;BME280;10051;40.294;-3.754;2023-02-19T07:48:39;95053.25;;;9.12;61.53
19783;BME280;10051;40.294;-3.754;2023-02-19T07:51:09;94979.91;;;8.73;61.36
19783;BME280;10051;40.294;-3.754;2023-02-19T07:53:35;94969.97;;;8.75;61.35
19783;BME280;10051;40.294;-3.754;2023-02-19T07:56:05;95092.63;;;9.67;60.62
19783;BME280;10051;40.294;-3.754;2023-02-19T07:58:32;95090.03;;;9.72;60.18
19783;BME280;10051;40.294;-3.754;2023-02-19T08:01:15;95013.22;;;9.22;59.70
19783;BME280;10051;40.294;-3.754;2023-02-19T08:03:41;95000.22;;;9.10;59.33
19783;BME280;10051;40.294;-3.754;2023-02-19T08:06:08;95026.28;;;9.17;59.07
19783;BME280;10051;40.294;-3.754;2023-02-19T08:08:35;95007.91;;;9.17;58.86
19783;BME280;10051;40.294;-3.754;2023-02-19T08:11:02;95120.13;;;9.87;58.58
19783;BME280;10051;40.294;-3.754;2023-02-19T08:13:48;95105.75;;;9.67;58.85
19783;BME280;10051;40.294;-3.754;2023-02-19T08:16:14;95118.09;;;9.66;59.11
19783;BME280;10051;40.294;-3.754;2023-02-19T08:18:42;95071.19;;;9.20;59.62
19783;BME280;10051;40.294;-3.754;2023-02-19T08:21:08;95119.59;;;9.57;59.94
19783;BME280;10051;40.294;-3.754;2023-02-19T08:23:34;95131.91;;;9.57;59.60
19783;BME280;10051;40.294;-3.754;2023-02-19T08:26:01;95133.94;;;9.49;59.87
19783;BME280;10051;40.294;-3.754;2023-02-19T08:28:27;95078.66;;;9.34;59.33
19783;BME280;10051;40.294;-3.754;2023-02-19T08:31:01;95001.63;;;8.90;59.04
19783;BME280;10051;40.294;-3.754;2023-02-19T08:33:27;95004.44;;;9.11;58.51
19783;BME280;10051;40.294;-3.754;2023-02-19T08:35:53;95029.44;;;9.46;57.94
19783;BME280;10051;40.294;-3.754;2023-02-19T08:38:20;94897.00;;;8.67;57.83
19783;BME280;10051;40.294;-3.754;2023-02-19T08:40:46;95068.16;;;9.99;57.56
19783;BME280;10051;40.294;-3.754;2023-02-19T08:43:13;95072.88;;;9.97;57.75
19783;BME280;10051;40.294;-3.754;2023-02-19T08:45:41;94910.41;;;8.98;57.24
19783;BME280;10051;40.294;-3.754;2023-02-19T08:48:08;94896.59;;;8.80;56.48
19783;BME280;10051;40.294;-3.754;2023-02-19T08:50:34;95075.09;;;9.78;56.40
19783;BME280;10051;40.294;-3.754;2023-02-19T08:53:01;95101.09;;;10.07;56.60
19783;BME280;10051;40.294;-3.754;2023-02-19T08:55:27;95138.69;;;10.12;56.02
19783;BME280;10051;40.294;-3.754;2023-02-19T08:57:53;94960.31;;;9.08;55.64
19783;BME280;10051;40.294;-3.754;2023-02-19T09:00:19;95081.31;;;9.99;54.80
19783;BME280;10051;40.294;-3.754;2023-02-19T09:02:46;95081.09;;;10.06;54.95
19783;BME280;10051;40.294;-3.754;2023-02-19T09:05:15;95075.59;;;10.07;54.87
19783;BME280;10051;40.294;-3.754;2023-02-19T09:07:41;95022.84;;;9.76;54.54
19783;BME280;10051;40.294;-3.754;2023-02-19T09:10:09;95128.53;;;10.59;54.84
19783;BME280;10051;40.294;-3.754;2023-02-19T09:12:34;95050.97;;;10.19;53.62
19783;BME280;10051;40.294;-3.754;2023-02-19T09:15:00;95123.91;;;10.82;53.31
19783;BME280;10051;40.294;-3.754;2023-02-19T09:17:26;95005.22;;;10.15;53.13
19783;BME280;10051;40.294;-3.754;2023-02-19T09:19:52;94994.72;;;10.20;52.40
19783;BME280;10051;40.294;-3.754;2023-02-19T09:22:17;95129.34;;;11.23;51.84
19783;BME280;10051;40.294;-3.754;2023-02-19T09:24:43;95127.25;;;11.30;52.07
19783;BME280;10051;40.294;-3.754;2023-02-19T09:27:14;95024.66;;;10.67;51.64
19783;BME280;10051;40.294;-3.754;2023-02-19T09:29:40;95015.75;;;10.78;50.85
19783;BME280;10051;40.294;-3.754;2023-02-19T09:32:06;95025.53;;;10.88;51.32
19783;BME280;10051;40.294;-3.754;2023-02-19T09:34:32;95097.78;;;11.39;51.17
19783;BME280;10051;40.294;-3.754;2023-02-19T09:36:57;95092.81;;;11.58;50.17
19783;BME280;10051;40.294;-3.754;2023-02-19T09:39:23;95087.00;;;11.56;49.87
19783;BME280;10051;40.294;-3.754;2023-02-19T09:41:54;95113.13;;;11.83;49.71
19783;BME280;10051;40.294;-3.754;2023-02-19T09:44:39;95075.72;;;11.66;48.89
19783;BME280;10051;40.294;-3.754;2023-02-19T09:47:12;95082.53;;;11.77;49.37
19783;BME280;10051;40.294;-3.754;2023-02-19T09:49:41;95129.78;;;12.15;49.22
19783;BME280;10051;40.294;-3.754;2023-02-19T09:54:43;95079.16;;;12.02;48.31
19783;BME280;10051;40.294;-3.754;2023-02-19T09:57:15;95136.59;;;12.42;48.40
19783;BME280;10051;40.294;-3.754;2023-02-19T09:59:48;95086.78;;;12.14;48.59
19783;BME280;10051;40.294;-3.754;2023-02-19T10:02:22;95111.56;;;12.39;47.97
19783;BME280;10051;40.294;-3.754;2023-02-19T10:04:49;95109.97;;;12.43;47.79
19783;BME280;10051;40.294;-3.754;2023-02-19T10:07:18;95083.84;;;12.47;47.11
19783;BME280;10051;40.294;-3.754;2023-02-19T10:09:50;95085.94;;;12.55;46.65
19783;BME280;10051;40.294;-3.754;2023-02-19T10:12:30;95078.81;;;12.51;47.05
19783;BME280;10051;40.294;-3.754;2023-02-19T10:15:30;95143.53;;;13.14;46.37
19783;BME280;10051;40.294;-3.754;2023-02-19T10:17:57;95086.09;;;12.90;45.89
19783;BME280;10051;40.294;-3.754;2023-02-19T10:20:24;95095.00;;;13.04;45.31
19783;BME280;10051;40.294;-3.754;2023-02-19T10:22:59;95135.47;;;13.50;45.17
19783;BME280;10051;40.294;-3.754;2023-02-19T10:25:26;95133.34;;;13.52;45.30
19783;BME280;10051;40.294;-3.754;2023-02-19T10:27:52;95038.56;;;12.90;45.15
19783;BME280;10051;40.294;-3.754;2023-02-19T10:30:23;95126.69;;;13.65;45.06
19783;BME280;10051;40.294;-3.754;2023-02-19T10:33:03;95126.31;;;13.82;43.98
19783;BME280;10051;40.294;-3.754;2023-02-19T10:35:30;95125.44;;;13.92;44.35
19783;BME280;10051;40.294;-3.754;2023-02-19T10:38:03;95132.47;;;14.07;43.63
19783;BME280;10051;40.294;-3.754;2023-02-19T10:40:31;95071.88;;;13.81;43.41
19783;BME280;10051;40.294;-3.754;2023-02-19T10:43:03;95133.38;;;14.26;43.25
19783;BME280;10051;40.294;-3.754;2023-02-19T10:45:32;95135.91;;;14.37;42.95
19783;BME280;10051;40.294;-3.754;2023-02-19T10:47:59;95129.50;;;14.43;42.46
19783;BME280;10051;40.294;-3.754;2023-02-19T10:50:31;95095.97;;;14.38;42.23
19783;BME280;10051;40.294;-3.754;2023-02-19T10:52:59;95022.00;;;13.98;41.99
19783;BME280;10051;40.294;-3.754;2023-02-19T10:55:29;95120.47;;;14.79;41.50
19783;BME280;10051;40.294;-3.754;2023-02-19T10:57:56;95118.53;;;14.84;41.61
19783;BME280;10051;40.294;-3.754;2023-02-19T11:00:27;95037.31;;;14.31;41.78
19783;BME280;10051;40.294;-3.754;2023-02-19T11:06:00;95107.84;;;14.95;41.10
19783;BME280;10051;40.294;-3.754;2023-02-19T11:08:27;95116.19;;;15.07;40.83
19783;BME280;10051;40.294;-3.754;2023-02-19T11:10:53;95092.25;;;14.93;40.74
19783;BME280;10051;40.294;-3.754;2023-02-19T11:13:25;95034.19;;;14.78;40.61
19783;BME280;10051;40.294;-3.754;2023-02-19T11:15:55;95091.06;;;15.24;40.62
19783;BME280;10051;40.294;-3.754;2023-02-19T11:18:41;95110.56;;;15.52;40.43
19783;BME280;10051;40.294;-3.754;2023-02-19T11:21:23;95057.06;;;15.31;39.92
19783;BME280;10051;40.294;-3.754;2023-02-19T11:23:49;95048.03;;;15.32;39.61
19783;BME280;10051;40.294;-3.754;2023-02-19T11:26:20;95011.00;;;15.27;39.30
19783;BME280;10051;40.294;-3.754;2023-02-19T11:28:55;95090.72;;;15.88;38.63
19783;BME280;10051;40.294;-3.754;2023-02-19T11:31:27;95082.00;;;15.87;39.01
19783;BME280;10051;40.294;-3.754;2023-02-19T11:34:01;95055.47;;;15.68;38.65
19783;BME280;10051;40.294;-3.754;2023-02-19T11:36:31;95086.63;;;15.96;38.95
19783;BME280;10051;40.294;-3.754;2023-02-19T11:39:21;95075.09;;;16.05;38.25
19783;BME280;10051;40.294;-3.754;2023-02-19T11:50:15;94980.69;;;15.85;37.74
19783;BME280;10051;40.294;-3.754;2023-02-19T11:52:55;95066.41;;;16.47;37.62
19783;BME280;10051;40.294;-3.754;2023-02-19T11:58:18;95031.69;;;16.29;37.61
19783;BME280;10051;40.294;-3.754;2023-02-19T12:18:09;94988.63;;;16.60;36.61
19783;BME280;10051;40.294;-3.754;2023-02-19T12:23:42;95025.38;;;17.09;36.20
19783;BME280;10051;40.294;-3.754;2023-02-19T12:31:56;95012.84;;;17.23;35.46
19783;BME280;10051;40.294;-3.754;2023-02-19T12:40:16;94981.38;;;17.17;35.44
19783;BME280;10051;40.294;-3.754;2023-02-19T12:43:12;94991.69;;;17.18;35.66
19783;BME280;10051;40.294;-3.754;2023-02-19T12:46:07;94981.66;;;17.15;35.88
19783;BME280;10051;40.294;-3.754;2023-02-19T12:49:00;94982.41;;;17.30;35.64
19783;BME280;10051;40.294;-3.754;2023-02-19T12:51:49;94966.66;;;17.33;35.11
19783;BME280;10051;40.294;-3.754;2023-02-19T12:54:26;94927.06;;;17.09;35.32
19783;BME280;10051;40.294;-3.754;2023-02-19T12:59:25;94904.66;;;17.24;35.18
19783;BME280;10051;40.294;-3.754;2023-02-19T13:02:00;94935.97;;;17.50;34.53
19783;BME280;10051;40.294;-3.754;2023-02-19T13:07:08;94925.72;;;17.66;34.58
19783;BME280;10051;40.294;-3.754;2023-02-19T13:09:49;94925.13;;;17.69;34.25
19783;BME280;10051;40.294;-3.754;2023-02-19T13:12:23;94931.44;;;17.82;34.15
19783;BME280;10051;40.294;-3.754;2023-02-19T13:15:03;94937.72;;;17.86;33.95
19783;BME280;10051;40.294;-3.754;2023-02-19T13:17:49;94890.38;;;17.65;33.91
19783;BME280;10051;40.294;-3.754;2023-02-19T13:20:26;94931.94;;;17.93;33.80
19783;BME280;10051;40.294;-3.754;2023-02-19T13:23:05;94904.34;;;17.80;34.10
19783;BME280;10051;40.294;-3.754;2023-02-19T13:29:18;94917.69;;;17.89;33.92
19783;BME280;10051;40.294;-3.754;2023-02-19T13:32:28;94911.63;;;17.97;33.96
19783;BME280;10051;40.294;-3.754;2023-02-19T13:37:52;94907.22;;;18.24;33.52
19783;BME280;10051;40.294;-3.754;2023-02-19T13:40:32;94900.50;;;18.26;33.22
19783;BME280;10051;40.294;-3.754;2023-02-19T13:43:03;94809.84;;;17.74;33.08
19783;BME280;10051;40.294;-3.754;2023-02-19T13:45:37;94881.03;;;18.17;33.58
19783;BME280;10051;40.294;-3.754;2023-02-19T13:50:48;94878.25;;;18.22;33.84
19783;BME280;10051;40.294;-3.754;2023-02-19T14:17:44;94841.59;;;18.10;33.60
19783;BME280;10051;40.294;-3.754;2023-02-19T14:25:36;94836.63;;;18.44;32.45
19783;BME280;10051;40.294;-3.754;2023-02-19T14:28:29;94842.13;;;18.56;32.53
19783;BME280;10051;40.294;-3.754;2023-02-19T14:31:15;94823.00;;;18.46;32.13
19783;BME280;10051;40.294;-3.754;2023-02-19T14:33:46;94831.47;;;18.48;32.07
19783;BME280;10051;40.294;-3.754;2023-02-19T14:38:52;94797.63;;;18.22;32.99
19783;BME280;10051;40.294;-3.754;2023-02-19T14:41:19;94803.41;;;18.24;32.84
19783;BME280;10051;40.294;-3.754;2023-02-19T14:43:49;94817.22;;;18.52;32.79
19783;BME280;10051;40.294;-3.754;2023-02-19T14:49:03;94818.16;;;18.65;32.16
19783;BME280;10051;40.294;-3.754;2023-02-19T14:51:52;94815.19;;;18.67;32.36
19783;BME280;10051;40.294;-3.754;2023-02-19T14:54:38;94807.81;;;18.55;32.25
19783;BME280;10051;40.294;-3.754;2023-02-19T14:57:12;94743.59;;;18.12;32.55
19783;BME280;10051;40.294;-3.754;2023-02-19T14:59:39;94766.94;;;18.33;32.61
19783;BME280;10051;40.294;-3.754;2023-02-19T15:02:15;94791.84;;;18.46;32.63
19783;BME280;10051;40.294;-3.754;2023-02-19T15:04:45;94789.66;;;18.48;32.52
19783;BME280;10051;40.294;-3.754;2023-02-19T15:07:20;94751.59;;;18.04;32.80
19783;BME280;10051;40.294;-3.754;2023-02-19T15:09:49;94779.13;;;18.34;32.96
19783;BME280;10051;40.294;-3.754;2023-02-19T15:12:18;94764.75;;;18.26;33.25
19783;BME280;10051;40.294;-3.754;2023-02-19T15:14:47;94729.03;;;18.19;32.98
19783;BME280;10051;40.294;-3.754;2023-02-19T15:17:19;94778.06;;;18.53;32.74
19783;BME280;10051;40.294;-3.754;2023-02-19T15:19:47;94744.22;;;18.36;32.63
19783;BME280;10051;40.294;-3.754;2023-02-19T15:22:24;94756.13;;;18.47;32.57
19783;BME280;10051;40.294;-3.754;2023-02-19T15:24:53;94718.09;;;18.29;32.70
19783;BME280;10051;40.294;-3.754;2023-02-19T15:27:22;94685.34;;;18.02;32.53
19783;BME280;10051;40.294;-3.754;2023-02-19T15:29:49;94761.59;;;18.68;32.44
19783;BME280;10051;40.294;-3.754;2023-02-19T15:32:19;94689.13;;;18.10;32.33
19783;BME280;10051;40.294;-3.754;2023-02-19T15:35:00;94756.59;;;18.58;32.39
19783;BME280;10051;40.294;-3.754;2023-02-19T15:37:29;94683.66;;;18.06;32.33
19783;BME280;10051;40.294;-3.754;2023-02-19T15:39:56;94705.72;;;18.16;32.15
19783;BME280;10051;40.294;-3.754;2023-02-19T15:42:31;94755.97;;;18.61;31.82
19783;BME280;10051;40.294;-3.754;2023-02-19T15:47:43;94724.34;;;18.33;31.14
19783;BME280;10051;40.294;-3.754;2023-02-19T16:00:53;94726.84;;;18.21;31.65
19783;BME280;10051;40.294;-3.754;2023-02-19T16:03:22;94741.25;;;18.37;31.46
19783;BME280;10051;40.294;-3.754;2023-02-19T16:06:12;94713.56;;;18.21;31.47
19783;BME280;10051;40.294;-3.754;2023-02-19T16:13:49;94695.03;;;17.98;31.49
19783;BME280;10051;40.294;-3.754;2023-02-19T16:16:27;94677.66;;;17.92;31.59
19783;BME280;10051;40.294;-3.754;2023-02-19T16:18:55;94743.28;;;18.40;31.61
19783;BME280;10051;40.294;-3.754;2023-02-19T16:21:23;94687.41;;;18.05;31.90
19783;BME280;10051;40.294;-3.754;2023-02-19T16:24:04;94643.09;;;17.65;32.37
19783;BME280;10051;40.294;-3.754;2023-02-19T16:26:40;94740.31;;;18.33;32.57
19783;BME280;10051;40.294;-3.754;2023-02-19T16:29:16;94612.09;;;17.43;32.67
19783;BME280;10051;40.294;-3.754;2023-02-19T16:31:51;94649.66;;;17.68;32.60
19783;BME280;10051;40.294;-3.754;2023-02-19T16:34:44;94655.44;;;17.70;32.76
19783;BME280;10051;40.294;-3.754;2023-02-19T16:37:54;94744.72;;;18.38;32.64
19783;BME280;10051;40.294;-3.754;2023-02-19T16:40:38;94738.91;;;18.36;32.41
19783;BME280;10051;40.294;-3.754;2023-02-19T16:45:46;94700.22;;;18.03;32.89
19783;BME280;10051;40.294;-3.754;2023-02-19T16:48:12;94703.63;;;17.95;32.86